createdAt,value
2023-05-02T00:01:39.886Z,99489.72
2023-05-02T00:04:11.477Z,99496.59
2023-05-02T00:06:43.208Z,99500.74
2023-05-02T00:09:15.780Z,99504.02
2023-05-02T00:11:47.246Z,99510.69
2023-05-02T00:14:18.624Z,99514.78
2023-05-02T00:16:50.100Z,99515.42
2023-05-02T00:19:21.595Z,99514.34
2023-05-02T00:21:53.419Z,99521.00
2023-05-02T00:24:24.810Z,99512.19
2023-05-02T00:26:56.386Z,99524.00
2023-05-02T00:29:27.759Z,99520.34
2023-05-02T00:31:59.137Z,99535.70
2023-05-02T00:34:31.607Z,99538.19
2023-05-02T00:37:03.121Z,99538.94
2023-05-02T00:39:35.299Z,99542.35
2023-05-02T00:42:06.860Z,99542.35
2023-05-02T00:44:38.600Z,99543.16
2023-05-02T00:47:09.939Z,99550.00
2023-05-02T00:49:41.311Z,99544.78
2023-05-02T00:52:12.676Z,99546.48
2023-05-02T00:54:45.132Z,99555.90
2023-05-02T00:57:16.604Z,99559.16
2023-05-02T00:59:48.030Z,99558.30
2023-05-02T01:02:24.010Z,99565.97
2023-05-02T01:04:57.705Z,99570.97
2023-05-02T01:07:33.219Z,99571.71
2023-05-02T01:10:07.853Z,99576.80
2023-05-02T01:12:42.587Z,99582.77
2023-05-02T01:15:17.963Z,99576.74
2023-05-02T01:17:50.638Z,99579.25
2023-05-02T01:20:24.286Z,99589.50
2023-05-02T01:22:58.275Z,99585.90
2023-05-02T01:25:32.889Z,99592.66
2023-05-02T01:28:06.384Z,99594.95
2023-05-02T01:30:39.836Z,99594.60
2023-05-02T01:33:12.547Z,99591.67
2023-05-02T01:35:45.013Z,99602.52
2023-05-02T01:38:18.578Z,99606.57
2023-05-02T01:40:54.095Z,99608.05
2023-05-02T01:43:26.035Z,99616.38
2023-05-02T01:45:58.757Z,99614.37
2023-05-02T01:48:30.413Z,99619.32
2023-05-02T01:51:04.281Z,99628.58
2023-05-02T01:53:37.063Z,99632.86
2023-05-02T01:56:09.059Z,99622.46
2023-05-02T01:58:41.425Z,99626.73
2023-05-02T02:01:13.952Z,99633.66
2023-05-02T02:03:46.925Z,99633.73
2023-05-02T02:06:19.187Z,99641.45
2023-05-02T02:08:51.145Z,99638.01
2023-05-02T02:11:25.044Z,99641.38
2023-05-02T02:13:58.957Z,99641.31
2023-05-02T02:16:34.306Z,99648.20
2023-05-02T02:19:07.661Z,99650.78
2023-05-02T02:21:41.302Z,99656.91
2023-05-02T02:24:13.235Z,99657.87
2023-05-02T02:26:44.896Z,99658.15
2023-05-02T02:29:16.570Z,99658.39
2023-05-02T02:31:48.110Z,99673.97
2023-05-02T02:34:19.697Z,99675.02
2023-05-02T02:36:52.745Z,99673.41
2023-05-02T02:39:27.497Z,99682.07
2023-05-02T02:42:03.807Z,99680.47
2023-05-02T02:44:38.223Z,99690.91
2023-05-02T02:47:12.335Z,99695.49
2023-05-02T02:49:48.562Z,99694.89
2023-05-02T02:52:22.263Z,99690.03
2023-05-02T02:54:55.288Z,99687.73
2023-05-02T02:57:28.242Z,99687.09
2023-05-02T03:00:03.719Z,99682.94
2023-05-02T03:02:37.308Z,99688.31
2023-05-02T03:05:09.512Z,99698.83
2023-05-02T03:07:41.067Z,99686.97
2023-05-02T03:10:12.663Z,99697.57
2023-05-02T03:12:44.552Z,99707.28
2023-05-02T03:15:19.582Z,99700.57
2023-05-02T03:17:51.232Z,99702.47
2023-05-02T03:20:23.755Z,99716.63
2023-05-02T03:22:55.278Z,99710.84
2023-05-02T03:25:26.796Z,99720.55
2023-05-02T03:27:59.464Z,99720.03
2023-05-02T03:30:31.141Z,99723.77
2023-05-02T03:33:04.909Z,99726.69
2023-05-02T03:35:36.522Z,99722.74
2023-05-02T03:38:08.024Z,99724.80
2023-05-02T03:40:40.577Z,99736.33
2023-05-02T03:43:13.423Z,99740.95
2023-05-02T03:45:46.147Z,99739.58
2023-05-02T03:48:18.845Z,99740.88
2023-05-02T03:50:54.547Z,99745.52
2023-05-02T03:53:26.118Z,99750.20
2023-05-02T03:55:58.340Z,99747.95
2023-05-02T03:58:31.516Z,99748.27
2023-05-02T04:01:03.751Z,99746.06
2023-05-02T04:03:35.617Z,99748.16
2023-05-02T04:06:08.430Z,99746.76
2023-05-02T04:08:40.110Z,99749.66
2023-05-02T04:11:11.768Z,99754.21
2023-05-02T04:13:43.348Z,99753.67
2023-05-02T04:16:15.876Z,99766.04
2023-05-02T04:18:47.480Z,99763.77
2023-05-02T04:21:19.379Z,99761.48
2023-05-02T04:23:51.707Z,99763.55
2023-05-02T04:26:23.766Z,99737.30
2023-05-02T04:28:56.954Z,99769.28
2023-05-02T04:31:28.912Z,99770.48
2023-05-02T04:34:00.512Z,99773.36
2023-05-02T04:36:36.028Z,99778.94
2023-05-02T04:39:08.574Z,99772.45
2023-05-02T04:41:41.824Z,99771.30
2023-05-02T04:44:13.385Z,99775.16
2023-05-02T04:46:46.212Z,99781.54
2023-05-02T04:49:18.308Z,99786.22
2023-05-02T04:51:49.901Z,99782.21
2023-05-02T04:54:21.488Z,99784.30
2023-05-02T04:56:53.068Z,99783.75
2023-05-02T04:59:25.067Z,99790.23
2023-05-02T05:01:57.144Z,99796.67
2023-05-02T05:04:29.644Z,99797.91
2023-05-02T05:07:01.767Z,99797.30
2023-05-02T05:09:33.448Z,99795.00
2023-05-02T05:12:05.458Z,99794.42
2023-05-02T05:14:38.862Z,99797.30
2023-05-02T05:17:11.610Z,99804.55
2023-05-02T05:19:47.347Z,99797.98
2023-05-02T05:22:22.351Z,99804.34
2023-05-02T05:24:54.717Z,99800.21
2023-05-02T05:27:27.895Z,99796.16
2023-05-02T05:29:59.782Z,99802.52
2023-05-02T05:32:34.230Z,99799.42
2023-05-02T05:35:06.616Z,99809.33
2023-05-02T05:37:39.648Z,99807.88
2023-05-02T05:40:13.008Z,99806.46
2023-05-02T05:42:46.422Z,99801.68
2023-05-02T05:45:20.375Z,99802.85
2023-05-02T05:47:52.300Z,99803.05
2023-05-02T05:50:24.224Z,99800.52
2023-05-02T05:52:58.782Z,99801.42
2023-05-02T05:55:30.561Z,99797.38
2023-05-02T05:58:02.093Z,99801.07
2023-05-02T06:00:35.274Z,99798.76
2023-05-02T06:03:09.541Z,99797.27
2023-05-02T06:05:40.869Z,99805.36
2023-05-02T06:08:15.306Z,99796.70
2023-05-02T06:10:49.602Z,99801.94
2023-05-02T06:13:26.359Z,99799.48
2023-05-02T06:15:59.490Z,99804.13
2023-05-02T06:18:31.116Z,99802.56
2023-05-02T06:21:06.058Z,99800.91
2023-05-02T06:23:40.688Z,99810.55
2023-05-02T06:26:12.415Z,99799.20
2023-05-02T06:28:44.516Z,99807.02
2023-05-02T06:31:16.595Z,99807.02
2023-05-02T06:33:48.212Z,99800.27
2023-05-02T06:36:19.720Z,99807.45
2023-05-02T06:38:51.389Z,99804.05
2023-05-02T06:41:23.675Z,99804.19
2023-05-02T06:43:55.409Z,99804.87
2023-05-02T06:46:28.357Z,99802.18
2023-05-02T06:48:59.974Z,99799.78
2023-05-02T06:51:32.023Z,99792.14
2023-05-02T06:54:03.824Z,99787.94
2023-05-02T06:56:35.370Z,99775.25
2023-05-02T06:59:06.901Z,99787.16
2023-05-02T07:01:38.706Z,99789.71
2023-05-02T07:04:10.374Z,99783.12
2023-05-02T07:06:42.300Z,99784.74
2023-05-02T07:09:13.934Z,99784.45
2023-05-02T07:11:45.506Z,99787.48
2023-05-02T07:14:17.152Z,99790.20
2023-05-02T07:16:48.867Z,99790.56
2023-05-02T07:19:20.481Z,99788.86
2023-05-02T07:21:51.962Z,99787.52
2023-05-02T07:24:23.471Z,99793.84
2023-05-02T07:29:26.267Z,99794.11
2023-05-02T07:31:57.868Z,99792.77
2023-05-02T07:34:29.541Z,99799.92
2023-05-02T07:37:01.103Z,99792.86
2023-05-02T07:39:34.293Z,99795.35
2023-05-02T07:42:06.773Z,99801.52
2023-05-02T07:44:38.625Z,99799.12
2023-05-02T07:47:10.793Z,99786.86
2023-05-02T07:49:42.274Z,99777.37
2023-05-02T07:52:13.942Z,99786.70
2023-05-02T07:54:45.732Z,99790.01
2023-05-02T07:57:17.491Z,99786.16
2023-05-02T07:59:49.272Z,99783.94
2023-05-02T08:02:21.894Z,99773.91
2023-05-02T08:04:54.271Z,99772.98
2023-05-02T08:07:26.294Z,99777.98
2023-05-02T08:09:57.881Z,99778.67
2023-05-02T08:12:29.461Z,99781.30
2023-05-02T08:15:00.981Z,99779.77
2023-05-02T08:17:32.852Z,99774.08
2023-05-02T08:20:04.775Z,99773.25
2023-05-02T08:22:36.348Z,99784.54
2023-05-02T08:25:08.322Z,99775.81
2023-05-02T08:27:39.865Z,99772.73
2023-05-02T08:30:11.903Z,99777.25
2023-05-02T08:32:43.516Z,99770.47
2023-05-02T08:35:15.127Z,99776.62
2023-05-02T08:37:46.679Z,99774.30
2023-05-02T08:40:27.316Z,99772.34
2023-05-02T08:42:52.961Z,99765.17
2023-05-02T08:45:24.900Z,99774.03
2023-05-02T08:47:57.455Z,99763.64
2023-05-02T08:50:29.984Z,99773.31
2023-05-02T08:53:01.828Z,99769.48
2023-05-02T08:55:33.837Z,99763.26
2023-05-02T08:58:05.338Z,99763.60
2023-05-02T09:00:39.697Z,99762.65
2023-05-02T09:03:14.000Z,99751.19
2023-05-02T09:05:47.292Z,99761.43
2023-05-02T09:08:21.813Z,99760.20
2023-05-02T09:10:53.529Z,99748.50
2023-05-02T09:13:32.023Z,99770.04
2023-05-02T09:16:04.507Z,99753.18
2023-05-02T09:18:36.576Z,99756.78
2023-05-02T09:21:09.371Z,99751.67
2023-05-02T09:23:41.697Z,99747.67
2023-05-02T09:26:14.324Z,99744.91
2023-05-02T09:28:46.650Z,99743.10
2023-05-02T09:31:26.834Z,99746.77
2023-05-02T09:33:52.218Z,99734.84
2023-05-02T09:36:24.077Z,99744.95
2023-05-02T09:38:57.148Z,99739.52
2023-05-02T09:41:30.119Z,99735.83
2023-05-02T09:44:01.640Z,99726.45
2023-05-02T09:46:35.697Z,99727.97
2023-05-02T09:49:07.590Z,99732.80
2023-05-02T09:51:39.367Z,99735.49
2023-05-02T09:54:11.596Z,99726.64
2023-05-02T09:56:56.730Z,99723.74
2023-05-02T09:59:28.457Z,99723.41
2023-05-02T10:02:00.752Z,99711.92
2023-05-02T10:04:33.649Z,99713.09
2023-05-02T10:07:06.819Z,99718.10
2023-05-02T10:09:39.790Z,99715.41
2023-05-02T10:12:11.340Z,99709.66
2023-05-02T10:14:44.359Z,99716.63
2023-05-02T10:17:17.628Z,99700.03
2023-05-02T10:19:52.169Z,99706.28
2023-05-02T10:22:25.050Z,99704.05
2023-05-02T10:24:58.255Z,99701.44
2023-05-02T10:27:30.717Z,99703.61
2023-05-02T10:30:04.307Z,99695.44
2023-05-02T10:32:37.090Z,99705.91
2023-05-02T10:35:09.286Z,99716.44
2023-05-02T10:37:42.925Z,99698.02
2023-05-02T10:40:14.783Z,99697.90
2023-05-02T10:42:47.898Z,99704.33
2023-05-02T10:45:32.865Z,99693.86
2023-05-02T10:48:18.648Z,99699.98
2023-05-02T10:50:52.045Z,99695.72
2023-05-02T10:53:27.651Z,99693.00
2023-05-02T10:56:26.391Z,99686.24
2023-05-02T10:58:59.734Z,99690.91
2023-05-02T11:01:41.901Z,99689.63
2023-05-02T11:04:13.464Z,99686.45
2023-05-02T11:07:02.303Z,99693.73
2023-05-02T11:09:36.775Z,99686.33
2023-05-02T11:12:08.704Z,99682.39
2023-05-02T11:14:52.414Z,99681.44
2023-05-02T11:17:25.124Z,99679.14
2023-05-02T11:20:30.161Z,99679.41
2023-05-02T11:23:04.038Z,99684.73
2023-05-02T11:25:38.940Z,99675.69
2023-05-02T11:28:12.033Z,99673.58
2023-05-02T11:30:44.967Z,99665.41
2023-05-02T11:33:17.773Z,99670.74
2023-05-02T11:35:49.844Z,99663.49
2023-05-02T11:38:22.516Z,99664.42
2023-05-02T11:40:55.432Z,99656.58
2023-05-02T11:43:29.372Z,99654.58
2023-05-02T11:46:02.347Z,99660.30
2023-05-02T11:48:34.243Z,99653.00
2023-05-02T11:51:07.470Z,99644.66
2023-05-02T11:53:40.658Z,99647.50
2023-05-02T11:56:12.365Z,99636.00
2023-05-02T11:58:44.451Z,99645.63
2023-05-02T12:01:16.533Z,99635.93
2023-05-02T12:03:49.685Z,99629.02
2023-05-02T12:06:21.744Z,99632.41
2023-05-02T12:08:55.013Z,99627.41
2023-05-02T12:11:27.777Z,99620.91
2023-05-02T12:14:02.613Z,99622.27
2023-05-02T12:16:38.518Z,99623.49
2023-05-02T12:19:13.180Z,99617.62
2023-05-02T12:25:25.974Z,99601.09
2023-05-02T12:28:46.707Z,99611.32
2023-05-02T12:31:22.077Z,99613.59
2023-05-02T12:33:55.361Z,99612.41
2023-05-02T12:36:28.639Z,99607.24
2023-05-02T12:39:01.666Z,99609.36
2023-05-02T12:41:34.306Z,99602.56
2023-05-02T12:44:06.416Z,99605.77
2023-05-02T12:46:38.088Z,99614.05
2023-05-02T12:49:12.355Z,99614.27
2023-05-02T12:51:45.726Z,99610.16
2023-05-02T12:54:22.696Z,99599.59
2023-05-02T12:56:54.502Z,99586.45
2023-05-02T13:02:25.228Z,99595.48
2023-05-02T13:13:06.278Z,99591.33
2023-05-02T13:15:37.829Z,99604.32
2023-05-02T13:18:09.587Z,99586.00
2023-05-02T13:20:41.328Z,99588.34
2023-05-02T13:23:12.897Z,99576.52
2023-05-02T13:25:44.440Z,99581.23
2023-05-02T13:28:16.023Z,99581.90
2023-05-02T13:30:47.685Z,99577.61
2023-05-02T13:33:19.516Z,99566.28
2023-05-02T13:35:51.126Z,99562.70
2023-05-02T13:38:22.592Z,99568.45
2023-05-02T13:40:55.880Z,99566.81
2023-05-02T13:43:27.670Z,99563.09
2023-05-02T13:45:59.355Z,99556.25
2023-05-02T13:48:31.015Z,99559.14
2023-05-02T13:51:03.793Z,99555.16
2023-05-02T13:53:35.943Z,99549.37
2023-05-02T13:56:08.112Z,99507.17
2023-05-02T13:58:39.697Z,99560.49
2023-05-02T14:01:11.350Z,99548.17
2023-05-02T14:03:43.206Z,99550.59
2023-05-02T14:06:14.865Z,99538.72
2023-05-02T14:08:46.466Z,99533.85
2023-05-02T14:11:18.044Z,99527.19
2023-05-02T14:13:49.590Z,99543.75
2023-05-02T14:16:23.814Z,99540.22
2023-05-02T14:18:59.350Z,99540.91
2023-05-02T14:21:32.617Z,99526.80
2023-05-02T14:24:07.417Z,99527.97
2023-05-02T14:26:40.490Z,99548.63
2023-05-02T14:29:18.428Z,99546.12
2023-05-02T14:31:51.216Z,99531.26
2023-05-02T14:34:25.776Z,99531.51
2023-05-02T14:38:07.778Z,99526.02
2023-05-02T14:40:14.618Z,99517.58
2023-05-02T14:42:59.952Z,99528.56
2023-05-02T14:45:35.264Z,99522.58
2023-05-02T14:48:14.321Z,99519.53
2023-05-02T14:50:51.063Z,99541.88
2023-05-02T14:53:25.322Z,99536.11
2023-05-02T14:55:56.939Z,99527.83
2023-05-02T14:58:28.500Z,99516.63
2023-05-02T15:01:00.262Z,99530.20
2023-05-02T15:03:32.062Z,99517.43
2023-05-02T15:06:03.874Z,99512.94
2023-05-02T15:08:37.392Z,99505.30
2023-05-02T15:11:08.820Z,99509.20
2023-05-02T15:13:56.714Z,99511.92
2023-05-02T15:16:24.253Z,99500.97
2023-05-02T15:18:55.061Z,99509.69
2023-05-02T15:21:27.144Z,99511.70
2023-05-02T15:23:59.059Z,99507.16
2023-05-02T15:26:49.523Z,99508.88
2023-05-02T15:29:22.100Z,99508.61
2023-05-02T15:31:54.653Z,99512.66
2023-05-02T15:34:26.195Z,99505.21
2023-05-02T15:36:59.176Z,99509.53
2023-05-02T15:39:30.834Z,99497.67
2023-05-02T15:42:03.835Z,99495.51
2023-05-02T15:44:39.276Z,99489.31
2023-05-02T15:47:10.353Z,99495.78
2023-05-02T15:49:55.900Z,99491.59
2023-05-02T15:52:35.708Z,99492.05
2023-05-02T15:55:16.655Z,99463.55
2023-05-02T15:57:55.101Z,99492.88
2023-05-02T16:00:31.151Z,99493.67
2023-05-02T16:03:04.060Z,99491.55
2023-05-02T16:05:36.218Z,99493.45
2023-05-02T16:08:08.005Z,99495.53
2023-05-02T16:10:41.993Z,99494.84
2023-05-02T16:13:13.651Z,99486.52
2023-05-02T16:15:45.377Z,99492.06
2023-05-02T16:18:17.035Z,99488.44
2023-05-02T16:20:54.389Z,99487.34
2023-05-02T16:23:26.268Z,99478.42
2023-05-02T16:26:02.000Z,99468.03
2023-05-02T16:28:33.830Z,99486.48
2023-05-02T16:31:08.173Z,99483.38
2023-05-02T16:33:39.859Z,99482.09
2023-05-02T16:36:11.959Z,99483.36
2023-05-02T16:38:43.919Z,99483.59
2023-05-02T16:41:15.575Z,99477.74
2023-05-02T16:43:48.521Z,99479.62
2023-05-02T16:46:20.404Z,99481.39
2023-05-02T16:48:52.031Z,99479.71
2023-05-02T16:51:23.903Z,99474.47
2023-05-02T16:53:58.447Z,99485.87
2023-05-02T16:56:43.141Z,99483.34
2023-05-02T16:59:16.924Z,99472.03
2023-05-02T17:01:49.871Z,99487.07
2023-05-02T17:04:25.666Z,99474.89
2023-05-02T17:06:57.333Z,99469.76
2023-05-02T17:09:29.087Z,99475.14
2023-05-02T17:12:07.800Z,99471.66
2023-05-02T17:14:42.931Z,99476.09
2023-05-02T17:17:14.527Z,99474.48
2023-05-02T17:19:58.793Z,99474.59
2023-05-02T17:23:01.706Z,99485.16
2023-05-02T17:25:53.831Z,99472.06
2023-05-02T17:28:28.584Z,99472.11
2023-05-02T17:31:10.101Z,99474.79
2023-05-02T17:33:43.518Z,99471.27
2023-05-02T17:36:18.299Z,99473.06
2023-05-02T17:38:50.056Z,99477.50
2023-05-02T17:41:23.990Z,99466.16
2023-05-02T17:43:55.828Z,99460.06
2023-05-02T17:46:27.903Z,99472.36
2023-05-02T17:49:06.240Z,99468.84
2023-05-02T17:52:01.514Z,99465.34
2023-05-02T17:54:33.862Z,99453.11
2023-05-02T17:57:05.704Z,99457.50
2023-05-02T17:59:41.633Z,99454.06
2023-05-02T18:02:17.944Z,99454.94
2023-05-02T18:04:50.064Z,99454.94
2023-05-02T18:07:25.605Z,99446.20
2023-05-02T18:09:57.447Z,99447.08
2023-05-02T18:12:29.593Z,99442.72
2023-05-02T18:15:02.244Z,99433.10
2023-05-02T18:17:35.378Z,99438.36
2023-05-02T18:20:09.717Z,99434.87
2023-05-02T18:22:41.672Z,99431.41
2023-05-02T18:25:15.064Z,99423.58
2023-05-02T18:27:46.971Z,99421.83
2023-05-02T18:30:20.354Z,99413.11
2023-05-02T18:32:52.135Z,99420.13
2023-05-02T18:35:24.113Z,99427.13
2023-05-02T18:37:56.617Z,99393.92
2023-05-02T18:40:32.422Z,99433.27
2023-05-02T18:43:04.257Z,99438.55
2023-05-02T18:45:36.334Z,99425.45
2023-05-02T18:48:08.417Z,99421.06
2023-05-02T18:50:40.583Z,99415.81
2023-05-02T18:53:12.275Z,99421.91
2023-05-02T18:55:43.797Z,99424.56
2023-05-02T18:58:15.347Z,99426.30
2023-05-02T19:00:49.018Z,99429.81
2023-05-02T19:03:22.389Z,99426.33
2023-05-02T19:05:54.029Z,99422.84
2023-05-02T19:08:25.838Z,99426.34
2023-05-02T19:10:57.551Z,99428.09
2023-05-02T19:13:31.673Z,99436.84
2023-05-02T19:16:10.324Z,99424.61
2023-05-02T19:26:32.265Z,99419.39
2023-05-02T22:25:24.497Z,99298.64
2023-05-02T22:28:00.219Z,99288.17
2023-05-02T22:30:32.028Z,99296.88
2023-05-02T22:33:04.251Z,99286.39
2023-05-02T22:35:36.054Z,99275.06
2023-05-02T22:38:10.363Z,99276.82
2023-05-02T22:40:42.189Z,99269.80
2023-05-02T22:43:14.228Z,99273.28
2023-05-02T22:45:50.166Z,99273.28
2023-05-02T22:48:21.923Z,99267.16
2023-05-02T22:50:54.631Z,99274.97
2023-05-02T22:53:26.728Z,99267.13
2023-05-02T22:55:58.561Z,99263.64
2023-05-02T22:58:30.852Z,99270.59
2023-05-02T23:01:06.280Z,99261.00
2023-05-02T23:03:41.502Z,99254.05
2023-05-02T23:06:14.301Z,99261.89
2023-05-02T23:08:49.152Z,99252.26
2023-05-02T23:11:21.537Z,99234.82
2023-05-02T23:13:55.180Z,99242.70
2023-05-02T23:16:27.330Z,99250.50
2023-05-02T23:18:59.576Z,99242.66
2023-05-02T23:21:31.608Z,99240.91
2023-05-02T23:24:04.835Z,99239.19
2023-05-02T23:26:37.897Z,99229.59
2023-05-02T23:29:09.785Z,99220.86
2023-05-02T23:31:42.052Z,99224.29
2023-05-02T23:34:13.898Z,99222.53
2023-05-02T23:36:45.775Z,99231.27
2023-05-02T23:39:17.372Z,99230.38
2023-05-02T23:41:48.902Z,99223.39
2023-05-02T23:44:21.272Z,99212.04
2023-05-02T23:46:52.849Z,99210.28
2023-05-02T23:49:24.537Z,99211.14
2023-05-02T23:51:56.078Z,99210.28
2023-05-02T23:54:30.855Z,99204.16
2023-05-02T23:57:03.418Z,99210.23
2023-05-02T23:59:35.234Z,99202.41
